Independence, KS

4:36 AM CDT on October 24, 2017 (GMT -0500)
Independence Municipal

Weather History for KIDP - November, 2012

Change the Weather History Date:

Friday, November 23, 2012

  Actual Average (KCFV) Record (KCFV)
Temperature  
Mean Temperature 40 °F -  
Max Temperature 50 °F 54 °F 75 °F (2005)
Min Temperature 30 °F 33 °F 16 °F (2007)
Degree Days  
Heating Degree Days 25    
Moisture  
Dew Point 25 °F    
Average Humidity 58    
Maximum Humidity 87    
Minimum Humidity 36    
Precipitation  
Precipitation 0.00 in - - ()
Sea Level Pressure  
Sea Level Pressure 30.45 in    
Wind  
Wind Speed 11 mph (NNW)    
Max Wind Speed 23 mph    
Max Gust Speed 29 mph    
Visibility 10 miles    
Events      
Averages and records for this station are not official NWS values.
T = Trace of Precipitation, MM = Missing Value Source: NWS Daily Summary

Daily Weather History Graph

Daily Weather History Graph

Search for Another Location

Airport or City:

Trip Planner

Search our weather history database for the weather conditions in past years. The results will help you decide how hot, cold, wet, or windy it might be!

Date:

Astronomy

Nov. 23, 2012 Rise Set
Actual Time 7:10 AM CST 5:08 PM CST
Civil Twilight 6:42 AM CST 5:36 PM CST
Nautical Twilight 6:10 AM CST 6:08 PM CST
Astronomical Twilight 5:39 AM CST 6:39 PM CST
Moon 2:18 PM CST (11/23) 2:36 AM CST (11/23)
Length of Visible Light 10h 54m
Length of Day
9h 57m
Waxing Gibbous, 80% of the Moon is Illuminated
Nov 23
Waxing Gibbous
Nov 28
Full
Dec 6
Last Quarter
Dec 13
New
Dec 19
First Quarter

Hourly Weather History & Observations

Time (CST) Temp. Windchill Dew Point Humidity Pressure Visibility Wind Dir Wind Speed Gust Speed Precip Events Conditions
12:15 AM 50.0 °F - 37.4 °F 62% 30.27 in 10.0 mi North 10.4 mph - N/A   Clear
12:35 AM 46.4 °F 42.9 °F 37.4 °F 71% 30.28 in 10.0 mi North 6.9 mph - N/A   Clear
12:55 AM 46.4 °F 41.9 °F 37.4 °F 71% 30.29 in 10.0 mi North 9.2 mph - N/A   Clear
1:15 AM 44.6 °F 39.7 °F 37.4 °F 76% 30.30 in 10.0 mi North 9.2 mph - N/A   Clear
1:35 AM 44.6 °F 40.7 °F 35.6 °F 71% 30.31 in 10.0 mi North 6.9 mph - N/A   Clear
1:55 AM 42.8 °F 38.0 °F 35.6 °F 76% 30.32 in 10.0 mi NNW 8.1 mph - N/A   Clear
2:15 AM 42.8 °F 38.0 °F 35.6 °F 76% 30.34 in 10.0 mi NNW 8.1 mph - N/A   Clear
2:35 AM 41.0 °F 35.2 °F 37.4 °F 87% 30.34 in 10.0 mi NNW 9.2 mph - N/A   Clear
2:55 AM 41.0 °F 35.2 °F 35.6 °F 81% 30.35 in 10.0 mi NNW 9.2 mph - N/A   Clear
3:15 AM 41.0 °F 35.8 °F 35.6 °F 81% 30.35 in 10.0 mi NNW 8.1 mph - N/A   Clear
3:35 AM 41.0 °F 38.0 °F 35.6 °F 81% 30.36 in 10.0 mi North 4.6 mph - N/A   Clear
3:55 AM 41.0 °F 38.0 °F 33.8 °F 76% 30.36 in 10.0 mi North 4.6 mph - N/A   Clear
4:15 AM 41.0 °F 35.2 °F 33.8 °F 76% 30.37 in 10.0 mi North 9.2 mph - N/A   Clear
4:35 AM 41.0 °F 35.2 °F 32.0 °F 70% 30.37 in 10.0 mi North 9.2 mph - N/A   Clear
4:55 AM 39.2 °F 33.6 °F 32.0 °F 75% 30.38 in 10.0 mi North 8.1 mph - N/A   Clear
5:15 AM 37.4 °F 32.1 °F 32.0 °F 81% 30.39 in 10.0 mi NNW 6.9 mph - N/A   Clear
5:35 AM 39.2 °F 32.5 °F 32.0 °F 75% 30.40 in 10.0 mi NNW 10.4 mph - N/A   Clear
5:55 AM 39.2 °F 33.0 °F 32.0 °F 75% 30.41 in 10.0 mi NW 9.2 mph - N/A   Clear
6:15 AM 41.0 °F 34.3 °F 32.0 °F 70% 30.42 in 10.0 mi NNW 11.5 mph - N/A   Clear
6:35 AM 41.0 °F 33.9 °F 30.2 °F 65% 30.43 in 10.0 mi NNW 12.7 mph - N/A   Clear
6:55 AM 41.0 °F 33.9 °F 28.4 °F 61% 30.44 in 10.0 mi NNW 12.7 mph 23.0 mph N/A   Clear
7:15 AM 41.0 °F 31.1 °F 24.8 °F 53% 30.45 in 10.0 mi NNW 23.0 mph 28.8 mph N/A   Clear
7:35 AM 39.2 °F 30.2 °F 26.6 °F 61% 30.46 in 10.0 mi NNW 17.3 mph 27.6 mph N/A   Clear
7:55 AM 39.2 °F 30.5 °F 26.6 °F 61% 30.47 in 10.0 mi NNW 16.1 mph 21.9 mph N/A   Clear
8:15 AM 39.2 °F 29.6 °F 26.6 °F 61% 30.48 in 10.0 mi NNW 19.6 mph 26.5 mph N/A   Clear
8:35 AM 39.2 °F 28.7 °F 21.2 °F 49% 30.49 in 10.0 mi NNW 23.0 mph 27.6 mph N/A   Clear
8:55 AM 39.2 °F 29.3 °F 21.2 °F 49% 30.50 in 10.0 mi NNW 20.7 mph 28.8 mph N/A   Clear
9:15 AM 39.2 °F 29.0 °F 19.4 °F 45% 30.51 in 10.0 mi North 21.9 mph 25.3 mph N/A   Clear
9:35 AM 41.0 °F 32.8 °F 21.2 °F 45% 30.51 in 10.0 mi North 16.1 mph 25.3 mph N/A   Clear
9:55 AM 41.0 °F 32.8 °F 21.2 °F 45% 30.52 in 10.0 mi NNW 16.1 mph 19.6 mph N/A   Clear
10:15 AM 41.0 °F 32.2 °F 21.2 °F 45% 30.53 in 10.0 mi NNW 18.4 mph - N/A   Clear
10:35 AM 41.0 °F 33.1 °F 19.4 °F 42% 30.53 in 10.0 mi NW 15.0 mph 24.2 mph N/A   Clear
10:55 AM 41.0 °F 32.8 °F 19.4 °F 42% 30.53 in 10.0 mi NW 16.1 mph 21.9 mph N/A   Clear
11:15 AM 41.0 °F 32.2 °F 19.4 °F 42% 30.53 in 10.0 mi NNW 18.4 mph 23.0 mph N/A   Clear
11:35 AM 41.0 °F 32.2 °F 17.6 °F 39% 30.53 in 10.0 mi NNW 18.4 mph 26.5 mph N/A   Clear
11:55 AM 41.0 °F 33.1 °F 19.4 °F 42% 30.52 in 10.0 mi NNW 15.0 mph 21.9 mph N/A   Clear
12:15 PM 42.8 °F 35.8 °F 19.4 °F 39% 30.51 in 10.0 mi NNW 13.8 mph 20.7 mph N/A   Clear
12:35 PM 42.8 °F 35.8 °F 17.6 °F 36% 30.51 in 10.0 mi NNW 13.8 mph - N/A   Clear
12:55 PM 42.8 °F 35.8 °F 19.4 °F 39% 30.49 in 10.0 mi NNW 13.8 mph 23.0 mph N/A   Clear
1:15 PM 41.0 °F 32.5 °F 17.6 °F 39% 30.49 in 10.0 mi NNW 17.3 mph 24.2 mph N/A   Clear
1:35 PM 42.8 °F 34.8 °F 17.6 °F 36% 30.49 in 10.0 mi NNW 17.3 mph 23.0 mph N/A   Clear
1:55 PM 42.8 °F 35.4 °F 19.4 °F 39% 30.48 in 10.0 mi NNW 15.0 mph - N/A   Clear
2:15 PM 42.8 °F 35.1 °F 19.4 °F 39% 30.48 in 10.0 mi North 16.1 mph 21.9 mph N/A   Clear
2:35 PM 42.8 °F 36.6 °F 19.4 °F 39% 30.47 in 10.0 mi NNW 11.5 mph 17.3 mph N/A   Clear
2:55 PM 42.8 °F 35.8 °F 19.4 °F 39% 30.48 in 10.0 mi NNW 13.8 mph - N/A   Clear
3:15 PM 42.8 °F 36.6 °F 19.4 °F 39% 30.47 in 10.0 mi North 11.5 mph - N/A   Clear
3:35 PM 42.8 °F 36.2 °F 19.4 °F 39% 30.47 in 10.0 mi NNW 12.7 mph 16.1 mph N/A   Clear
3:55 PM 42.8 °F 35.8 °F 19.4 °F 39% 30.47 in 10.0 mi North 13.8 mph 18.4 mph N/A   Clear
4:15 PM 42.8 °F 36.2 °F 19.4 °F 39% 30.47 in 10.0 mi NW 12.7 mph 17.3 mph N/A   Clear
4:35 PM 41.0 °F 34.3 °F 19.4 °F 42% 30.47 in 10.0 mi NNW 11.5 mph - N/A   Clear
4:55 PM 41.0 °F 35.2 °F 19.4 °F 42% 30.47 in 10.0 mi NNW 9.2 mph - N/A   Clear
5:15 PM 37.4 °F 31.4 °F 21.2 °F 52% 30.47 in 10.0 mi NNW 8.1 mph - N/A   Clear
5:35 PM 35.6 °F 29.9 °F 21.2 °F 56% 30.47 in 10.0 mi NW 6.9 mph - N/A   Clear
5:55 PM 35.6 °F 29.9 °F 21.2 °F 56% 30.47 in 10.0 mi NNW 6.9 mph - N/A   Clear
6:15 PM 33.8 °F 27.0 °F 21.2 °F 60% 30.47 in 10.0 mi NW 8.1 mph - N/A   Clear
6:35 PM 33.8 °F 27.7 °F 21.2 °F 60% 30.47 in 10.0 mi NW 6.9 mph - N/A   Clear
6:55 PM 32.0 °F 26.4 °F 21.2 °F 64% 30.47 in 10.0 mi NW 5.8 mph - N/A   Clear
7:15 PM 32.0 °F 27.5 °F 23.0 °F 69% 30.47 in 10.0 mi NW 4.6 mph - N/A   Clear
7:35 PM 32.0 °F 27.5 °F 21.2 °F 64% 30.47 in 10.0 mi NW 4.6 mph - N/A   Clear
7:55 PM 32.0 °F 27.5 °F 21.2 °F 64% 30.48 in 10.0 mi WNW 4.6 mph - N/A   Clear
8:15 PM 32.0 °F 25.6 °F 21.2 °F 64% 30.48 in 10.0 mi NW 6.9 mph - N/A   Clear
8:35 PM 32.0 °F 25.6 °F 21.2 °F 64% 30.47 in 10.0 mi NW 6.9 mph - N/A   Clear
8:55 PM 32.0 °F 25.6 °F 21.2 °F 64% 30.48 in 10.0 mi NNW 6.9 mph - N/A   Clear
9:15 PM 32.0 °F 25.6 °F 21.2 °F 64% 30.47 in 10.0 mi NNW 6.9 mph - N/A   Clear
9:35 PM 32.0 °F 26.4 °F 21.2 °F 64% 30.47 in 10.0 mi NNW 5.8 mph - N/A   Clear
9:55 PM 30.2 °F 26.7 °F 21.2 °F 69% 30.46 in 10.0 mi North 3.5 mph - N/A   Clear
10:15 PM 30.2 °F 22.6 °F 21.2 °F 69% 30.46 in 10.0 mi NNW 8.1 mph - N/A   Clear
10:35 PM 30.2 °F 22.6 °F 21.2 °F 69% 30.46 in 10.0 mi NNW 8.1 mph - N/A   Clear
10:55 PM 30.2 °F 21.9 °F 21.2 °F 69% 30.46 in 10.0 mi NNW 9.2 mph - N/A   Clear
11:15 PM 30.2 °F 21.9 °F 21.2 °F 69% 30.46 in 10.0 mi NNW 9.2 mph - N/A   Clear
11:35 PM 30.2 °F 21.9 °F 21.2 °F 69% 30.46 in 10.0 mi North 9.2 mph - N/A   Clear
11:55 PM 30.2 °F 22.6 °F 21.2 °F 69% 30.45 in 10.0 mi North 8.1 mph - N/A   Clear